Terminal Aerodrome Forecast
Issued by NWS

Home | Current Version | Previous Version | Text Only | Print | Product List | Glossary On
Versions: 1 2 3 4 5 6 7 8 9 10 11 12 13 14 15 16 17 18
000
FTUS46 KSEW 012344
TAFPAE
TAF
KPAE 012344Z 0200/0224 17010KT P6SM SCT030 OVC060
     FM020900 16008KT P6SM -RA BKN025 OVC040
     FM021200 16006KT P6SM -SHRA BKN015 OVC040
     FM021600 17008KT P6SM BKN025 OVC060
     FM022100 21008KT P6SM BKN040 BKN080=

USA.gov is the U.S. government's official web portal to all federal, state and local government web resources and services.